createdAt,value
2023-03-06T00:02:45.787Z,1.30
2023-03-06T00:06:10.779Z,1.35
2023-03-06T00:09:10.717Z,1.33
2023-03-06T00:12:34.692Z,2.87
2023-03-06T00:15:46.753Z,2.95
2023-03-06T00:18:58.779Z,1.30
2023-03-06T00:22:16.802Z,1.30
2023-03-06T00:25:40.813Z,1.90
2023-03-06T00:28:41.790Z,1.35
2023-03-06T00:31:53.827Z,1.40
2023-03-06T00:35:17.826Z,1.50
2023-03-06T00:38:42.890Z,1.70
2023-03-06T00:41:43.454Z,1.70
2023-03-06T00:44:54.892Z,2.10
2023-03-06T00:48:06.880Z,2.90
2023-03-06T00:51:18.860Z,1.67
2023-03-06T00:54:35.918Z,2.40
2023-03-06T00:57:47.856Z,1.27
2023-03-06T01:01:00.896Z,1.40
2023-03-06T01:04:12.899Z,1.00
2023-03-06T01:07:24.883Z,3.23
2023-03-06T01:10:51.920Z,2.85
2023-03-06T01:14:03.896Z,1.70
2023-03-06T01:17:28.007Z,4.27
2023-03-06T01:20:39.941Z,1.27
2023-03-06T01:23:51.950Z,2.10
2023-03-06T01:27:05.932Z,1.27
2023-03-06T01:30:19.941Z,1.27
2023-03-06T01:33:19.929Z,2.05
2023-03-06T01:36:46.925Z,4.10
2023-03-06T01:39:47.053Z,1.45
2023-03-06T01:43:13.010Z,1.50
2023-03-06T01:46:32.046Z,1.23
2023-03-06T01:49:56.049Z,4.70
2023-03-06T01:53:23.015Z,1.80
2023-03-06T01:56:47.068Z,1.15
2023-03-06T02:00:01.051Z,3.25
2023-03-06T02:03:13.117Z,1.70
2023-03-06T02:06:25.092Z,3.80
2023-03-06T02:09:37.084Z,3.70
2023-03-06T02:13:01.138Z,2.87
2023-03-06T02:16:15.075Z,1.67
2023-03-06T02:19:44.142Z,4.13
2023-03-06T02:22:57.179Z,2.00
2023-03-06T02:26:26.145Z,2.85
2023-03-06T02:29:50.240Z,2.07
2023-03-06T02:33:03.122Z,2.03
2023-03-06T02:36:15.140Z,2.03
2023-03-06T02:39:42.235Z,1.70
2023-03-06T02:43:11.234Z,3.55
2023-03-06T02:46:23.185Z,2.13
2023-03-06T02:49:24.886Z,2.60
2023-03-06T02:52:35.175Z,2.30
2023-03-06T02:55:47.232Z,2.60
2023-03-06T02:59:13.253Z,2.15
2023-03-06T03:02:31.207Z,2.50
2023-03-06T03:05:43.283Z,2.27
2023-03-06T03:08:55.322Z,2.30
2023-03-06T03:12:07.305Z,2.40
2023-03-06T03:15:21.304Z,2.15
2023-03-06T03:18:34.300Z,2.70
2023-03-06T03:21:49.326Z,5.35
2023-03-06T03:25:01.407Z,2.23
2023-03-06T03:28:01.374Z,2.17
2023-03-06T03:31:29.407Z,3.10
2023-03-06T03:34:44.287Z,3.70
2023-03-06T03:37:56.303Z,3.63
2023-03-06T03:41:08.369Z,4.87
2023-03-06T03:44:32.334Z,3.87
2023-03-06T03:47:58.401Z,3.43
2023-03-06T03:51:27.431Z,1.83
2023-03-06T03:54:51.524Z,2.20
2023-03-06T03:58:04.436Z,3.60
2023-03-06T04:01:31.595Z,2.75
2023-03-06T04:04:57.417Z,2.85
2023-03-06T04:08:09.463Z,4.55
2023-03-06T04:11:24.500Z,2.37
2023-03-06T04:14:36.490Z,3.47
2023-03-06T04:17:48.488Z,4.23
2023-03-06T04:21:14.520Z,2.60
2023-03-06T04:24:30.560Z,2.90
2023-03-06T04:27:45.464Z,4.53
2023-03-06T04:30:57.485Z,3.10
2023-03-06T04:34:09.549Z,3.07
2023-03-06T04:37:35.588Z,3.10
2023-03-06T04:40:59.482Z,2.90
2023-03-06T04:44:14.574Z,2.70
2023-03-06T04:47:14.549Z,2.00
2023-03-06T04:50:38.514Z,2.17
2023-03-06T04:53:52.641Z,1.80
2023-03-06T04:57:04.552Z,2.43
2023-03-06T05:00:04.693Z,2.65
2023-03-06T05:03:18.574Z,1.10
2023-03-06T05:06:21.618Z,1.73
2023-03-06T05:09:47.650Z,1.77
2023-03-06T05:13:02.615Z,2.40
2023-03-06T05:16:26.700Z,2.60
2023-03-06T05:19:26.633Z,1.33
2023-03-06T05:22:50.665Z,1.57
2023-03-06T05:26:04.722Z,2.10
2023-03-06T05:29:16.637Z,1.50
2023-03-06T05:32:16.798Z,3.63
2023-03-06T05:35:40.804Z,1.23
2023-03-06T05:38:52.764Z,1.20
2023-03-06T05:42:18.757Z,0.75
2023-03-06T05:45:34.817Z,0.90
2023-03-06T05:48:58.759Z,1.83
2023-03-06T05:51:58.713Z,0.95
2023-03-06T05:55:10.766Z,0.90
2023-03-06T05:58:24.812Z,0.97
2023-03-06T06:01:37.811Z,0.70
2023-03-06T06:04:49.858Z,0.80
2023-03-06T06:08:01.813Z,0.67
2023-03-06T06:11:25.828Z,0.70
2023-03-06T06:14:39.943Z,1.80
2023-03-06T06:17:53.867Z,0.70
2023-03-06T06:20:55.854Z,1.40
2023-03-06T06:24:09.816Z,0.60
2023-03-06T06:27:21.850Z,0.60
2023-03-06T06:30:47.933Z,0.45
2023-03-06T06:33:59.905Z,1.10
2023-03-06T06:37:11.925Z,0.80
2023-03-06T06:40:11.905Z,1.10
2023-03-06T06:43:23.874Z,1.03
2023-03-06T06:49:48.954Z,1.10
2023-03-06T06:52:49.059Z,0.80
2023-03-06T06:56:01.961Z,2.50
2023-03-06T06:59:17.533Z,0.53
2023-03-06T07:02:42.981Z,0.75
2023-03-06T07:05:43.007Z,0.80
2023-03-06T07:09:07.037Z,0.80
2023-03-06T07:12:10.108Z,0.80
2023-03-06T07:15:36.031Z,0.93
2023-03-06T07:18:50.003Z,0.90
2023-03-06T07:22:02.112Z,0.70
2023-03-06T07:25:14.033Z,1.10
2023-03-06T07:28:51.556Z,0.60
2023-03-06T07:31:50.092Z,0.60
2023-03-06T07:35:20.044Z,1.07
2023-03-06T07:38:16.092Z,0.80
2023-03-06T07:41:29.094Z,0.90
2023-03-06T07:44:44.173Z,0.90
2023-03-06T07:48:08.164Z,0.60
2023-03-06T07:51:22.248Z,3.47
2023-03-06T07:54:34.101Z,0.50
2023-03-06T07:57:46.147Z,0.87
2023-03-06T08:01:10.240Z,0.83
2023-03-06T08:04:34.161Z,0.80
2023-03-06T08:07:48.164Z,0.67
2023-03-06T08:11:03.212Z,1.10
2023-03-06T08:14:15.245Z,1.00
2023-03-06T08:17:30.270Z,1.00
2023-03-06T08:20:31.230Z,1.00
2023-03-06T08:23:58.357Z,1.00
2023-03-06T08:27:10.246Z,1.07
2023-03-06T08:30:23.247Z,1.40
2023-03-06T08:33:23.315Z,1.87
2023-03-06T08:36:47.357Z,1.45
2023-03-06T08:40:00.269Z,0.93
2023-03-06T08:43:14.292Z,0.70
2023-03-06T08:46:13.332Z,0.90
2023-03-06T08:49:37.322Z,0.90
2023-03-06T08:52:37.271Z,1.00
2023-03-06T08:56:03.285Z,0.80
2023-03-06T08:59:15.513Z,0.85
2023-03-06T09:02:31.322Z,2.40
2023-03-06T09:05:32.376Z,0.80
2023-03-06T09:08:44.439Z,0.90
2023-03-06T09:11:57.445Z,1.33
2023-03-06T09:15:09.387Z,1.33
2023-03-06T09:18:09.444Z,0.97
2023-03-06T09:21:33.473Z,1.10
2023-03-06T09:24:33.440Z,0.80
2023-03-06T09:28:10.930Z,0.83
2023-03-06T09:31:11.595Z,1.17
2023-03-06T09:34:24.420Z,0.80
2023-03-06T09:37:24.633Z,0.70
2023-03-06T09:40:48.552Z,1.33
2023-03-06T09:44:02.483Z,0.80
2023-03-06T09:47:33.467Z,0.80
2023-03-06T09:50:47.512Z,0.70
2023-03-06T09:54:14.530Z,1.10
2023-03-06T09:57:26.532Z,0.87
2023-03-06T10:00:52.546Z,1.47
2023-03-06T10:04:16.482Z,2.50
2023-03-06T10:07:29.498Z,0.93
2023-03-06T10:10:57.609Z,2.63
2023-03-06T10:14:09.529Z,0.60
2023-03-06T10:17:35.637Z,1.73
2023-03-06T10:20:51.658Z,0.90
2023-03-06T10:24:16.648Z,1.90
2023-03-06T10:27:29.650Z,0.60
2023-03-06T10:30:56.617Z,0.53
2023-03-06T10:34:12.669Z,0.85
2023-03-06T10:37:38.747Z,0.67
2023-03-06T10:40:50.645Z,1.90
2023-03-06T10:44:17.694Z,0.50
2023-03-06T10:47:44.616Z,1.70
2023-03-06T10:51:18.028Z,0.30
2023-03-06T10:54:22.748Z,1.50
2023-03-06T10:57:49.723Z,0.47
2023-03-06T11:00:52.763Z,0.57
2023-03-06T11:04:05.764Z,0.60
2023-03-06T11:07:30.745Z,0.40
2023-03-06T11:10:54.957Z,2.33
2023-03-06T11:14:01.793Z,0.55
2023-03-06T11:17:13.784Z,1.30
2023-03-06T11:20:48.586Z,2.40
2023-03-06T11:24:01.777Z,0.80
2023-03-06T11:27:13.840Z,1.10
2023-03-06T11:30:39.816Z,0.70
2023-03-06T11:33:51.839Z,5.73
2023-03-06T11:37:17.905Z,0.85
2023-03-06T11:40:31.821Z,0.63
2023-03-06T11:43:55.886Z,0.83
2023-03-06T11:47:11.838Z,0.40
2023-03-06T11:50:38.883Z,0.35
2023-03-06T11:53:50.874Z,0.30
2023-03-06T11:57:17.842Z,0.80
2023-03-06T12:00:40.862Z,2.83
2023-03-06T12:04:14.941Z,0.35
2023-03-06T12:07:28.905Z,1.03
2023-03-06T12:10:52.948Z,0.20
2023-03-06T12:14:22.909Z,2.30
2023-03-06T12:17:47.989Z,0.40
2023-03-06T12:21:02.987Z,0.20
2023-03-06T12:24:34.956Z,2.95
2023-03-06T12:27:48.024Z,1.25
2023-03-06T12:31:19.076Z,0.50
2023-03-06T12:34:35.952Z,0.40
2023-03-06T12:38:04.048Z,0.30
2023-03-06T12:41:21.090Z,0.30
2023-03-06T12:44:48.027Z,1.73
2023-03-06T12:48:01.076Z,1.90
2023-03-06T12:51:26.081Z,1.35
2023-03-06T12:54:38.044Z,0.83
2023-03-06T12:58:05.090Z,2.30
2023-03-06T13:01:21.151Z,0.47
2023-03-06T13:04:56.202Z,2.15
2023-03-06T13:08:12.089Z,0.50
2023-03-06T13:11:41.147Z,2.80
2023-03-06T13:14:54.761Z,1.33
2023-03-06T13:18:24.155Z,2.00
2023-03-06T13:21:39.181Z,0.47
2023-03-06T13:25:08.517Z,0.30
2023-03-06T13:28:26.211Z,0.60
2023-03-06T13:31:50.143Z,1.80
2023-03-06T13:35:02.236Z,0.97
2023-03-06T13:38:27.365Z,1.10
2023-03-06T13:41:46.289Z,1.00
2023-03-06T13:45:13.172Z,0.55
2023-03-06T13:48:43.173Z,1.13
2023-03-06T13:51:50.230Z,1.50
2023-03-06T13:55:05.255Z,0.73
2023-03-06T13:58:44.268Z,1.73
2023-03-06T14:02:08.350Z,1.47
2023-03-06T14:05:36.325Z,0.80
2023-03-06T14:08:48.341Z,1.10
2023-03-06T14:12:12.327Z,0.75
2023-03-06T14:15:24.306Z,0.93
2023-03-06T14:18:50.376Z,0.50
2023-03-06T14:22:02.297Z,0.60
2023-03-06T14:25:27.369Z,0.80
2023-03-06T14:28:48.354Z,1.17
2023-03-06T14:32:13.362Z,0.40
2023-03-06T14:35:30.517Z,0.90
2023-03-06T14:38:49.431Z,0.90
2023-03-06T14:42:01.347Z,1.27
2023-03-06T14:45:25.426Z,0.65
2023-03-06T14:48:38.417Z,1.10
2023-03-06T14:52:06.418Z,0.77
2023-03-06T14:55:18.448Z,4.13
2023-03-06T14:58:42.459Z,0.30
2023-03-06T15:01:59.579Z,2.20
2023-03-06T15:05:23.511Z,0.60
2023-03-06T15:08:37.464Z,0.95
2023-03-06T15:12:17.596Z,1.10
2023-03-06T15:15:29.528Z,0.60
2023-03-06T15:18:54.446Z,0.47
2023-03-06T15:22:06.509Z,0.37
2023-03-06T15:25:39.528Z,0.87
2023-03-06T15:29:08.315Z,0.95
2023-03-06T15:32:27.598Z,0.75
2023-03-06T15:35:50.546Z,0.40
2023-03-06T15:39:02.575Z,0.60
2023-03-06T15:42:14.548Z,0.60
2023-03-06T15:45:40.627Z,0.40
2023-03-06T15:48:47.607Z,0.51
2023-03-06T15:52:11.648Z,0.43
2023-03-06T15:55:11.646Z,0.60
2023-03-06T15:58:38.682Z,1.10
2023-03-06T16:01:52.655Z,0.50
2023-03-06T16:05:16.630Z,1.75
2023-03-06T16:08:28.649Z,0.40
2023-03-06T16:11:52.650Z,1.05
2023-03-06T16:15:07.634Z,2.73
2023-03-06T16:18:36.741Z,0.30
2023-03-06T16:21:36.767Z,0.60
2023-03-06T16:25:00.660Z,0.60
2023-03-06T16:28:12.674Z,0.50
2023-03-06T16:31:36.726Z,1.40
2023-03-06T16:34:49.712Z,1.40
2023-03-06T16:38:13.696Z,0.60
2023-03-06T16:41:13.713Z,0.60
2023-03-06T16:44:37.741Z,1.30
2023-03-06T16:47:37.787Z,0.85
2023-03-06T16:51:03.749Z,0.70
2023-03-06T16:54:03.753Z,1.30
2023-03-06T16:57:16.793Z,1.37
2023-03-06T17:00:31.272Z,1.27
2023-03-06T17:03:41.843Z,1.37
2023-03-06T17:06:54.863Z,1.05
2023-03-06T17:10:09.951Z,4.50
2023-03-06T17:13:21.823Z,1.45
2023-03-06T17:16:45.916Z,1.30
2023-03-06T17:19:57.853Z,1.10
2023-03-06T17:23:23.943Z,1.50
2023-03-06T17:26:35.913Z,2.57
2023-03-06T17:29:48.891Z,2.53
2023-03-06T17:33:00.947Z,1.93
2023-03-06T17:36:24.965Z,3.15
2023-03-06T17:39:38.910Z,2.07
2023-03-06T17:42:53.947Z,2.40
2023-03-06T17:45:53.910Z,2.67
2023-03-06T17:49:08.945Z,4.47
2023-03-06T17:52:21.015Z,2.50
2023-03-06T17:55:53.063Z,2.20
2023-03-06T17:58:54.010Z,2.40
2023-03-06T18:02:20.042Z,2.85
2023-03-06T18:05:33.020Z,2.70
2023-03-06T18:08:33.072Z,3.20
2023-03-06T18:11:58.043Z,2.57
2023-03-06T18:14:58.057Z,2.67
2023-03-06T18:18:13.008Z,2.45
2023-03-06T18:21:28.070Z,2.95
2023-03-06T18:24:51.102Z,3.10
2023-03-06T18:28:05.063Z,4.77
2023-03-06T18:31:41.126Z,3.53
2023-03-06T18:34:41.117Z,3.75
2023-03-06T18:37:54.102Z,4.03
2023-03-06T18:40:55.125Z,3.47
2023-03-06T18:44:22.067Z,4.07
2023-03-06T18:47:21.188Z,6.60
2023-03-06T18:50:37.164Z,3.55
2023-03-06T18:53:37.173Z,4.53
2023-03-06T18:56:49.124Z,4.85
2023-03-06T19:00:06.207Z,4.70
2023-03-06T19:03:18.274Z,4.75
2023-03-06T19:06:31.275Z,4.70
2023-03-06T19:09:43.246Z,5.57
2023-03-06T19:12:57.245Z,5.20
2023-03-06T19:16:23.251Z,5.00
2023-03-06T19:19:23.260Z,5.30
2023-03-06T19:22:47.218Z,6.97
2023-03-06T19:25:59.281Z,6.43
2023-03-06T19:29:23.283Z,8.10
2023-03-06T19:32:37.308Z,8.87
2023-03-06T19:35:50.333Z,10.00
2023-03-06T19:39:05.338Z,8.65
2023-03-06T19:42:18.363Z,6.67
2023-03-06T19:45:19.316Z,9.30
2023-03-06T19:48:44.362Z,10.07
2023-03-06T19:51:44.270Z,11.90
2023-03-06T19:54:56.344Z,10.83
2023-03-06T19:57:56.506Z,13.40
2023-03-06T20:01:08.438Z,11.90
2023-03-06T20:04:34.420Z,12.40
2023-03-06T20:07:34.369Z,12.23
2023-03-06T20:11:01.442Z,12.77
2023-03-06T20:14:13.460Z,11.23
2023-03-06T20:17:25.412Z,12.35
2023-03-06T20:20:39.444Z,13.87
2023-03-06T20:23:51.476Z,13.60
2023-03-06T20:26:51.414Z,12.80
2023-03-06T20:30:03.508Z,13.83
2023-03-06T20:33:15.576Z,12.57
2023-03-06T20:36:42.532Z,14.40
2023-03-06T20:39:42.496Z,18.33
2023-03-06T20:42:54.481Z,18.85
2023-03-06T20:46:06.585Z,17.43
2023-03-06T20:49:27.385Z,16.87
2023-03-06T20:52:43.580Z,18.30
2023-03-06T20:55:55.621Z,19.90
2023-03-06T20:59:07.550Z,19.43
2023-03-06T21:02:19.581Z,16.45
2023-03-06T21:05:20.603Z,15.35
2023-03-06T21:08:45.565Z,17.53
2023-03-06T21:11:48.598Z,21.43
2023-03-06T21:15:00.580Z,17.90
2023-03-06T21:18:00.652Z,18.17
2023-03-06T21:21:24.588Z,19.17
2023-03-06T21:24:41.655Z,19.20
2023-03-06T21:27:54.639Z,22.20
2023-03-06T21:30:54.628Z,17.07
2023-03-06T21:34:18.683Z,22.23
2023-03-06T21:37:18.733Z,21.03
2023-03-06T21:40:45.719Z,21.10
2023-03-06T21:43:45.735Z,17.93
2023-03-06T21:47:09.739Z,22.80
2023-03-06T21:50:21.763Z,19.73
2023-03-06T21:53:33.796Z,20.47
2023-03-06T21:56:47.718Z,19.77
2023-03-06T22:00:00.797Z,20.70
2023-03-06T22:03:12.808Z,20.05
2023-03-06T22:06:31.806Z,20.13
2023-03-06T22:09:44.771Z,19.23
2023-03-06T22:12:51.733Z,19.37
2023-03-06T22:16:17.913Z,17.57
2023-03-06T22:19:17.805Z,19.30
2023-03-06T22:22:29.840Z,18.30
2023-03-06T22:25:29.836Z,15.77
2023-03-06T22:28:57.920Z,17.80
2023-03-06T22:32:11.946Z,16.67
2023-03-06T22:35:28.830Z,18.87
2023-03-06T22:38:28.881Z,15.35
2023-03-06T22:41:52.897Z,17.20
2023-03-06T22:44:52.923Z,18.00
2023-03-06T22:48:18.895Z,16.37
2023-03-06T22:51:30.872Z,15.70
2023-03-06T22:54:42.927Z,16.27
2023-03-06T22:57:54.898Z,16.75
2023-03-06T23:01:07.038Z,15.80
2023-03-06T23:04:20.980Z,14.23
2023-03-06T23:07:32.964Z,14.70
2023-03-06T23:10:35.991Z,15.17
2023-03-06T23:14:06.110Z,14.53
2023-03-06T23:17:25.033Z,13.95
2023-03-06T23:20:58.009Z,13.50
2023-03-06T23:24:28.071Z,13.95
2023-03-06T23:27:40.997Z,13.93
2023-03-06T23:30:41.144Z,11.73
2023-03-06T23:34:08.051Z,11.45
2023-03-06T23:37:21.086Z,13.60
2023-03-06T23:40:36.030Z,11.40
2023-03-06T23:43:36.048Z,9.17
2023-03-06T23:46:48.096Z,11.23
2023-03-06T23:49:48.057Z,10.90
2023-03-06T23:53:14.218Z,10.95
2023-03-06T23:56:14.096Z,11.03
2023-03-06T23:59:29.134Z,9.60
